sensor_id;sensor_type;location;lat;lon;timestamp;temperature;humidity
14101;DHT22;7127;49.372;8.166;2023-03-31T00:01:40;15.70;54.00
14101;DHT22;7127;49.372;8.166;2023-03-31T00:04:07;15.60;54.00
14101;DHT22;7127;49.372;8.166;2023-03-31T00:06:38;15.50;54.10
14101;DHT22;7127;49.372;8.166;2023-03-31T00:09:08;15.60;54.20
14101;DHT22;7127;49.372;8.166;2023-03-31T00:11:35;15.60;54.30
14101;DHT22;7127;49.372;8.166;2023-03-31T00:14:05;15.60;54.30
14101;DHT22;7127;49.372;8.166;2023-03-31T00:16:32;15.60;54.30
14101;DHT22;7127;49.372;8.166;2023-03-31T00:18:59;15.60;54.40
14101;DHT22;7127;49.372;8.166;2023-03-31T00:21:27;15.60;54.40
14101;DHT22;7127;49.372;8.166;2023-03-31T00:24:00;15.60;54.40
14101;DHT22;7127;49.372;8.166;2023-03-31T00:26:28;15.60;54.40
14101;DHT22;7127;49.372;8.166;2023-03-31T00:28:55;15.60;54.50
14101;DHT22;7127;49.372;8.166;2023-03-31T00:31:24;15.60;54.40
14101;DHT22;7127;49.372;8.166;2023-03-31T00:33:53;15.60;54.50
14101;DHT22;7127;49.372;8.166;2023-03-31T00:36:20;15.60;54.60
14101;DHT22;7127;49.372;8.166;2023-03-31T00:38:52;15.60;54.50
14101;DHT22;7127;49.372;8.166;2023-03-31T00:41:19;15.50;54.40
14101;DHT22;7127;49.372;8.166;2023-03-31T00:44:01;15.60;54.50
14101;DHT22;7127;49.372;8.166;2023-03-31T00:46:34;15.60;54.70
14101;DHT22;7127;49.372;8.166;2023-03-31T00:49:03;15.60;55.00
14101;DHT22;7127;49.372;8.166;2023-03-31T00:51:31;15.60;54.40
14101;DHT22;7127;49.372;8.166;2023-03-31T00:54:02;15.60;54.30
14101;DHT22;7127;49.372;8.166;2023-03-31T00:56:33;15.70;54.30
14101;DHT22;7127;49.372;8.166;2023-03-31T00:59:03;15.60;54.10
14101;DHT22;7127;49.372;8.166;2023-03-31T01:01:33;15.70;54.10
14101;DHT22;7127;49.372;8.166;2023-03-31T01:04:04;15.70;54.00
14101;DHT22;7127;49.372;8.166;2023-03-31T01:06:32;15.70;54.00
14101;DHT22;7127;49.372;8.166;2023-03-31T01:08:59;15.70;53.80
14101;DHT22;7127;49.372;8.166;2023-03-31T01:11:32;15.80;53.80
14101;DHT22;7127;49.372;8.166;2023-03-31T01:14:00;15.80;53.80
14101;DHT22;7127;49.372;8.166;2023-03-31T01:16:28;15.80;53.70
14101;DHT22;7127;49.372;8.166;2023-03-31T01:18:57;15.80;53.50
14101;DHT22;7127;49.372;8.166;2023-03-31T01:21:49;15.80;53.50
14101;DHT22;7127;49.372;8.166;2023-03-31T01:24:43;15.90;53.50
14101;DHT22;7127;49.372;8.166;2023-03-31T01:27:36;15.90;53.50
14101;DHT22;7127;49.372;8.166;2023-03-31T01:30:30;15.90;53.50
14101;DHT22;7127;49.372;8.166;2023-03-31T01:33:33;15.90;53.50
14101;DHT22;7127;49.372;8.166;2023-03-31T01:39:43;15.90;53.20
14101;DHT22;7127;49.372;8.166;2023-03-31T01:42:13;16.00;53.40
14101;DHT22;7127;49.372;8.166;2023-03-31T01:44:44;16.00;53.30
14101;DHT22;7127;49.372;8.166;2023-03-31T01:47:16;16.00;53.30
14101;DHT22;7127;49.372;8.166;2023-03-31T01:49:54;16.00;53.40
14101;DHT22;7127;49.372;8.166;2023-03-31T01:52:27;16.00;53.40
14101;DHT22;7127;49.372;8.166;2023-03-31T01:55:03;16.00;53.30
14101;DHT22;7127;49.372;8.166;2023-03-31T01:57:34;16.00;53.40
14101;DHT22;7127;49.372;8.166;2023-03-31T02:00:04;15.90;53.90
14101;DHT22;7127;49.372;8.166;2023-03-31T02:02:37;16.10;53.40
14101;DHT22;7127;49.372;8.166;2023-03-31T02:05:08;16.10;53.50
14101;DHT22;7127;49.372;8.166;2023-03-31T02:07:38;16.10;53.50
14101;DHT22;7127;49.372;8.166;2023-03-31T02:10:10;16.10;53.50
14101;DHT22;7127;49.372;8.166;2023-03-31T02:12:39;16.10;53.60
14101;DHT22;7127;49.372;8.166;2023-03-31T02:15:10;16.30;53.70
14101;DHT22;7127;49.372;8.166;2023-03-31T02:17:39;16.10;53.50
14101;DHT22;7127;49.372;8.166;2023-03-31T02:20:12;16.10;53.60
14101;DHT22;7127;49.372;8.166;2023-03-31T02:22:42;16.10;53.60
14101;DHT22;7127;49.372;8.166;2023-03-31T02:25:15;16.10;54.10
14101;DHT22;7127;49.372;8.166;2023-03-31T02:27:46;16.10;53.50
14101;DHT22;7127;49.372;8.166;2023-03-31T02:30:14;16.10;53.50
14101;DHT22;7127;49.372;8.166;2023-03-31T02:32:43;16.00;53.30
14101;DHT22;7127;49.372;8.166;2023-03-31T02:35:14;16.10;53.40
14101;DHT22;7127;49.372;8.166;2023-03-31T02:37:42;16.00;53.40
14101;DHT22;7127;49.372;8.166;2023-03-31T02:40:17;16.00;53.30
14101;DHT22;7127;49.372;8.166;2023-03-31T02:42:44;15.90;53.30
14101;DHT22;7127;49.372;8.166;2023-03-31T02:45:41;15.90;53.30
14101;DHT22;7127;49.372;8.166;2023-03-31T02:48:10;15.90;53.60
14101;DHT22;7127;49.372;8.166;2023-03-31T02:50:53;15.90;53.40
14101;DHT22;7127;49.372;8.166;2023-03-31T02:53:31;15.90;53.60
14101;DHT22;7127;49.372;8.166;2023-03-31T02:56:17;15.90;53.50
14101;DHT22;7127;49.372;8.166;2023-03-31T02:59:01;15.90;53.50
14101;DHT22;7127;49.372;8.166;2023-03-31T03:01:43;16.10;53.70
14101;DHT22;7127;49.372;8.166;2023-03-31T03:04:29;15.90;53.60
14101;DHT22;7127;49.372;8.166;2023-03-31T03:07:04;15.90;53.60
14101;DHT22;7127;49.372;8.166;2023-03-31T03:09:41;15.90;53.50
14101;DHT22;7127;49.372;8.166;2023-03-31T03:12:16;15.90;53.50
14101;DHT22;7127;49.372;8.166;2023-03-31T03:14:47;15.90;53.60
14101;DHT22;7127;49.372;8.166;2023-03-31T03:17:20;15.90;53.60
14101;DHT22;7127;49.372;8.166;2023-03-31T03:19:54;15.90;53.60
14101;DHT22;7127;49.372;8.166;2023-03-31T03:22:21;15.90;53.60
14101;DHT22;7127;49.372;8.166;2023-03-31T03:24:48;15.90;53.50
14101;DHT22;7127;49.372;8.166;2023-03-31T03:27:18;15.80;53.40
14101;DHT22;7127;49.372;8.166;2023-03-31T03:29:46;15.80;53.50
14101;DHT22;7127;49.372;8.166;2023-03-31T03:32:14;15.80;53.50
14101;DHT22;7127;49.372;8.166;2023-03-31T03:34:40;15.80;53.60
14101;DHT22;7127;49.372;8.166;2023-03-31T03:37:07;15.80;53.70
14101;DHT22;7127;49.372;8.166;2023-03-31T03:39:34;15.80;53.70
14101;DHT22;7127;49.372;8.166;2023-03-31T03:42:01;15.80;53.70
14101;DHT22;7127;49.372;8.166;2023-03-31T03:44:30;15.80;53.70
14101;DHT22;7127;49.372;8.166;2023-03-31T03:46:57;15.70;53.60
14101;DHT22;7127;49.372;8.166;2023-03-31T03:49:24;15.70;53.60
14101;DHT22;7127;49.372;8.166;2023-03-31T03:51:50;15.80;53.80
14101;DHT22;7127;49.372;8.166;2023-03-31T03:54:17;15.80;53.80
14101;DHT22;7127;49.372;8.166;2023-03-31T03:56:44;15.80;53.70
14101;DHT22;7127;49.372;8.166;2023-03-31T03:59:11;15.70;53.60
14101;DHT22;7127;49.372;8.166;2023-03-31T04:01:40;15.60;53.70
14101;DHT22;7127;49.372;8.166;2023-03-31T04:04:07;15.60;53.70
14101;DHT22;7127;49.372;8.166;2023-03-31T04:06:34;15.50;53.80
14101;DHT22;7127;49.372;8.166;2023-03-31T04:09:01;15.40;53.90
14101;DHT22;7127;49.372;8.166;2023-03-31T04:11:28;15.50;54.10
14101;DHT22;7127;49.372;8.166;2023-03-31T04:13:55;15.50;54.20
14101;DHT22;7127;49.372;8.166;2023-03-31T04:16:22;15.40;54.20
14101;DHT22;7127;49.372;8.166;2023-03-31T04:18:51;15.40;54.20
14101;DHT22;7127;49.372;8.166;2023-03-31T04:21:22;15.30;54.10
14101;DHT22;7127;49.372;8.166;2023-03-31T04:23:50;15.50;54.30
14101;DHT22;7127;49.372;8.166;2023-03-31T04:26:24;15.50;54.30
14101;DHT22;7127;49.372;8.166;2023-03-31T04:28:56;15.40;54.20
14101;DHT22;7127;49.372;8.166;2023-03-31T04:31:26;15.40;54.40
14101;DHT22;7127;49.372;8.166;2023-03-31T04:33:56;15.40;54.40
14101;DHT22;7127;49.372;8.166;2023-03-31T04:36:27;15.40;54.50
14101;DHT22;7127;49.372;8.166;2023-03-31T04:38:56;15.40;54.60
14101;DHT22;7127;49.372;8.166;2023-03-31T04:41:24;15.40;54.60
14101;DHT22;7127;49.372;8.166;2023-03-31T04:43:52;15.40;54.70
14101;DHT22;7127;49.372;8.166;2023-03-31T04:46:19;15.40;54.70
14101;DHT22;7127;49.372;8.166;2023-03-31T04:48:46;15.40;54.60
14101;DHT22;7127;49.372;8.166;2023-03-31T04:51:14;15.30;54.60
14101;DHT22;7127;49.372;8.166;2023-03-31T04:53:41;15.30;54.60
14101;DHT22;7127;49.372;8.166;2023-03-31T04:56:08;15.30;54.70
14101;DHT22;7127;49.372;8.166;2023-03-31T04:58:35;15.30;54.80
14101;DHT22;7127;49.372;8.166;2023-03-31T05:01:02;15.30;54.90
14101;DHT22;7127;49.372;8.166;2023-03-31T05:03:30;15.30;55.00
14101;DHT22;7127;49.372;8.166;2023-03-31T05:05:57;15.30;55.00
14101;DHT22;7127;49.372;8.166;2023-03-31T05:08:26;15.30;55.00
14101;DHT22;7127;49.372;8.166;2023-03-31T05:10:53;15.30;55.10
14101;DHT22;7127;49.372;8.166;2023-03-31T05:13:19;15.30;55.10
14101;DHT22;7127;49.372;8.166;2023-03-31T05:15:47;15.30;55.10
14101;DHT22;7127;49.372;8.166;2023-03-31T05:18:15;15.30;55.10
14101;DHT22;7127;49.372;8.166;2023-03-31T05:20:42;15.30;55.20
14101;DHT22;7127;49.372;8.166;2023-03-31T05:23:09;15.30;55.20
14101;DHT22;7127;49.372;8.166;2023-03-31T05:25:37;15.30;55.10
14101;DHT22;7127;49.372;8.166;2023-03-31T05:28:04;15.30;55.20
14101;DHT22;7127;49.372;8.166;2023-03-31T05:30:31;15.10;55.10
14101;DHT22;7127;49.372;8.166;2023-03-31T05:32:57;15.20;55.10
14101;DHT22;7127;49.372;8.166;2023-03-31T05:35:25;15.20;55.30
14101;DHT22;7127;49.372;8.166;2023-03-31T05:37:51;15.20;55.30
14101;DHT22;7127;49.372;8.166;2023-03-31T05:40:18;15.20;55.40
14101;DHT22;7127;49.372;8.166;2023-03-31T05:42:47;15.20;55.50
14101;DHT22;7127;49.372;8.166;2023-03-31T05:45:13;15.20;55.50
14101;DHT22;7127;49.372;8.166;2023-03-31T05:47:41;15.30;55.60
14101;DHT22;7127;49.372;8.166;2023-03-31T05:50:08;15.20;55.60
14101;DHT22;7127;49.372;8.166;2023-03-31T05:52:35;15.20;55.70
14101;DHT22;7127;49.372;8.166;2023-03-31T05:55:02;15.10;56.10
14101;DHT22;7127;49.372;8.166;2023-03-31T05:57:30;15.20;55.70
14101;DHT22;7127;49.372;8.166;2023-03-31T05:59:58;15.20;55.80
14101;DHT22;7127;49.372;8.166;2023-03-31T06:02:25;15.20;55.80
14101;DHT22;7127;49.372;8.166;2023-03-31T06:04:52;15.20;55.80
14101;DHT22;7127;49.372;8.166;2023-03-31T06:07:19;15.20;55.90
14101;DHT22;7127;49.372;8.166;2023-03-31T06:09:46;15.10;55.80
14101;DHT22;7127;49.372;8.166;2023-03-31T06:12:13;15.10;56.40
14101;DHT22;7127;49.372;8.166;2023-03-31T06:14:41;15.10;56.00
14101;DHT22;7127;49.372;8.166;2023-03-31T06:17:09;15.10;56.10
14101;DHT22;7127;49.372;8.166;2023-03-31T06:19:36;15.10;56.10
14101;DHT22;7127;49.372;8.166;2023-03-31T06:22:03;15.10;56.20
14101;DHT22;7127;49.372;8.166;2023-03-31T06:24:30;15.10;56.20
14101;DHT22;7127;49.372;8.166;2023-03-31T06:26:57;15.10;56.30
14101;DHT22;7127;49.372;8.166;2023-03-31T06:29:25;15.20;56.40
14101;DHT22;7127;49.372;8.166;2023-03-31T06:31:52;15.20;56.60
14101;DHT22;7127;49.372;8.166;2023-03-31T06:34:21;15.20;56.40
14101;DHT22;7127;49.372;8.166;2023-03-31T06:36:48;15.20;56.40
14101;DHT22;7127;49.372;8.166;2023-03-31T06:39:15;15.20;56.40
14101;DHT22;7127;49.372;8.166;2023-03-31T06:41:42;15.30;56.50
14101;DHT22;7127;49.372;8.166;2023-03-31T06:44:09;15.20;56.50
14101;DHT22;7127;49.372;8.166;2023-03-31T06:46:36;15.20;56.50
14101;DHT22;7127;49.372;8.166;2023-03-31T06:49:03;15.20;56.60
14101;DHT22;7127;49.372;8.166;2023-03-31T06:51:31;15.20;56.60
14101;DHT22;7127;49.372;8.166;2023-03-31T06:53:58;15.10;56.60
14101;DHT22;7127;49.372;8.166;2023-03-31T06:56:26;15.20;56.60
14101;DHT22;7127;49.372;8.166;2023-03-31T06:58:53;15.20;56.60
14101;DHT22;7127;49.372;8.166;2023-03-31T07:01:19;15.30;56.70
14101;DHT22;7127;49.372;8.166;2023-03-31T07:03:47;15.20;56.60
14101;DHT22;7127;49.372;8.166;2023-03-31T07:06:14;15.20;56.70
14101;DHT22;7127;49.372;8.166;2023-03-31T07:08:42;15.20;56.80
14101;DHT22;7127;49.372;8.166;2023-03-31T07:11:09;15.30;56.90
14101;DHT22;7127;49.372;8.166;2023-03-31T07:13:37;15.30;56.90
14101;DHT22;7127;49.372;8.166;2023-03-31T07:16:04;15.30;57.00
14101;DHT22;7127;49.372;8.166;2023-03-31T07:18:32;15.30;57.10
14101;DHT22;7127;49.372;8.166;2023-03-31T07:21:01;15.30;56.90
14101;DHT22;7127;49.372;8.166;2023-03-31T07:23:27;15.30;57.00
14101;DHT22;7127;49.372;8.166;2023-03-31T07:25:56;15.40;57.20
14101;DHT22;7127;49.372;8.166;2023-03-31T07:28:27;15.30;57.10
14101;DHT22;7127;49.372;8.166;2023-03-31T07:30:53;15.30;57.20
14101;DHT22;7127;49.372;8.166;2023-03-31T07:33:20;15.40;57.40
14101;DHT22;7127;49.372;8.166;2023-03-31T07:35:47;15.40;57.40
14101;DHT22;7127;49.372;8.166;2023-03-31T07:38:14;15.40;57.50
14101;DHT22;7127;49.372;8.166;2023-03-31T07:40:42;15.60;57.60
14101;DHT22;7127;49.372;8.166;2023-03-31T07:43:11;15.50;57.60
14101;DHT22;7127;49.372;8.166;2023-03-31T07:45:39;15.50;57.50
14101;DHT22;7127;49.372;8.166;2023-03-31T07:48:06;15.60;57.50
14101;DHT22;7127;49.372;8.166;2023-03-31T07:50:33;15.60;57.50
14101;DHT22;7127;49.372;8.166;2023-03-31T07:53:00;15.70;57.50
14101;DHT22;7127;49.372;8.166;2023-03-31T07:55:26;15.60;57.70
14101;DHT22;7127;49.372;8.166;2023-03-31T07:57:53;15.60;57.50
14101;DHT22;7127;49.372;8.166;2023-03-31T08:00:25;15.60;57.50
14101;DHT22;7127;49.372;8.166;2023-03-31T08:02:52;15.60;57.60
14101;DHT22;7127;49.372;8.166;2023-03-31T08:05:19;15.60;57.60
14101;DHT22;7127;49.372;8.166;2023-03-31T08:07:48;15.70;57.80
14101;DHT22;7127;49.372;8.166;2023-03-31T08:10:18;15.80;58.20
14101;DHT22;7127;49.372;8.166;2023-03-31T08:12:45;15.90;58.30
14101;DHT22;7127;49.372;8.166;2023-03-31T08:15:12;15.90;58.20
14101;DHT22;7127;49.372;8.166;2023-03-31T08:17:40;16.10;58.40
14101;DHT22;7127;49.372;8.166;2023-03-31T08:20:08;16.20;58.50
14101;DHT22;7127;49.372;8.166;2023-03-31T08:22:36;16.30;58.30
14101;DHT22;7127;49.372;8.166;2023-03-31T08:25:03;16.50;58.30
14101;DHT22;7127;49.372;8.166;2023-03-31T08:27:32;16.50;58.20
14101;DHT22;7127;49.372;8.166;2023-03-31T08:30:00;17.00;58.80
14101;DHT22;7127;49.372;8.166;2023-03-31T08:32:29;16.70;58.40
14101;DHT22;7127;49.372;8.166;2023-03-31T08:34:57;16.80;59.00
14101;DHT22;7127;49.372;8.166;2023-03-31T08:37:25;16.90;58.30
14101;DHT22;7127;49.372;8.166;2023-03-31T08:39:52;17.00;58.30
14101;DHT22;7127;49.372;8.166;2023-03-31T08:42:22;17.00;58.30
14101;DHT22;7127;49.372;8.166;2023-03-31T08:44:56;17.30;58.40
14101;DHT22;7127;49.372;8.166;2023-03-31T08:47:26;17.40;58.20
14101;DHT22;7127;49.372;8.166;2023-03-31T08:49:59;17.50;57.90
14101;DHT22;7127;49.372;8.166;2023-03-31T08:52:30;17.70;57.50
14101;DHT22;7127;49.372;8.166;2023-03-31T08:55:02;17.70;57.10
14101;DHT22;7127;49.372;8.166;2023-03-31T08:57:35;17.60;56.60
14101;DHT22;7127;49.372;8.166;2023-03-31T09:00:12;17.70;56.10
14101;DHT22;7127;49.372;8.166;2023-03-31T09:02:44;17.60;55.90
14101;DHT22;7127;49.372;8.166;2023-03-31T09:05:43;17.60;55.60
14101;DHT22;7127;49.372;8.166;2023-03-31T09:08:16;17.50;55.40
14101;DHT22;7127;49.372;8.166;2023-03-31T09:10:53;17.30;55.40
14101;DHT22;7127;49.372;8.166;2023-03-31T09:13:44;17.30;55.50
14101;DHT22;7127;49.372;8.166;2023-03-31T09:16:13;17.30;55.80
14101;DHT22;7127;49.372;8.166;2023-03-31T09:18:41;17.10;55.60
14101;DHT22;7127;49.372;8.166;2023-03-31T09:21:17;17.10;55.60
14101;DHT22;7127;49.372;8.166;2023-03-31T09:23:50;17.00;55.70
14101;DHT22;7127;49.372;8.166;2023-03-31T09:26:25;16.90;55.60
14101;DHT22;7127;49.372;8.166;2023-03-31T09:28:54;16.90;55.50
14101;DHT22;7127;49.372;8.166;2023-03-31T09:31:23;16.80;55.40
14101;DHT22;7127;49.372;8.166;2023-03-31T09:33:54;16.70;55.40
14101;DHT22;7127;49.372;8.166;2023-03-31T09:36:25;16.70;55.50
14101;DHT22;7127;49.372;8.166;2023-03-31T09:38:51;16.70;55.70
14101;DHT22;7127;49.372;8.166;2023-03-31T09:41:19;16.50;55.80
14101;DHT22;7127;49.372;8.166;2023-03-31T09:43:46;16.50;55.90
14101;DHT22;7127;49.372;8.166;2023-03-31T09:46:20;16.60;56.00
14101;DHT22;7127;49.372;8.166;2023-03-31T09:48:57;16.50;56.10
14101;DHT22;7127;49.372;8.166;2023-03-31T09:51:31;16.50;56.20
14101;DHT22;7127;49.372;8.166;2023-03-31T09:54:03;16.60;56.40
14101;DHT22;7127;49.372;8.166;2023-03-31T09:56:44;16.70;56.40
14101;DHT22;7127;49.372;8.166;2023-03-31T09:59:14;16.70;56.50
14101;DHT22;7127;49.372;8.166;2023-03-31T10:01:44;16.80;56.60
14101;DHT22;7127;49.372;8.166;2023-03-31T10:04:19;16.80;56.40
14101;DHT22;7127;49.372;8.166;2023-03-31T10:06:48;17.00;56.20
14101;DHT22;7127;49.372;8.166;2023-03-31T10:09:18;17.00;56.20
14101;DHT22;7127;49.372;8.166;2023-03-31T10:11:54;17.10;56.20
14101;DHT22;7127;49.372;8.166;2023-03-31T10:14:31;17.10;55.80
14101;DHT22;7127;49.372;8.166;2023-03-31T10:17:04;17.20;55.70
14101;DHT22;7127;49.372;8.166;2023-03-31T10:19:33;17.20;55.70
14101;DHT22;7127;49.372;8.166;2023-03-31T10:22:04;17.20;55.70
14101;DHT22;7127;49.372;8.166;2023-03-31T10:24:38;17.20;55.70
14101;DHT22;7127;49.372;8.166;2023-03-31T10:27:12;17.20;55.70
14101;DHT22;7127;49.372;8.166;2023-03-31T10:29:41;17.30;55.80
14101;DHT22;7127;49.372;8.166;2023-03-31T10:32:13;17.30;56.00
14101;DHT22;7127;49.372;8.166;2023-03-31T10:34:43;17.40;56.00
14101;DHT22;7127;49.372;8.166;2023-03-31T10:37:15;17.50;55.90
14101;DHT22;7127;49.372;8.166;2023-03-31T10:39:44;17.50;55.90
14101;DHT22;7127;49.372;8.166;2023-03-31T10:42:19;17.50;55.90
14101;DHT22;7127;49.372;8.166;2023-03-31T10:44:46;17.50;55.80
14101;DHT22;7127;49.372;8.166;2023-03-31T10:47:19;17.60;56.00
14101;DHT22;7127;49.372;8.166;2023-03-31T10:49:48;17.50;55.90
14101;DHT22;7127;49.372;8.166;2023-03-31T10:52:20;17.60;56.00
14101;DHT22;7127;49.372;8.166;2023-03-31T10:54:50;17.60;56.00
14101;DHT22;7127;49.372;8.166;2023-03-31T10:57:22;17.70;56.20
14101;DHT22;7127;49.372;8.166;2023-03-31T11:00:00;17.80;56.40
14101;DHT22;7127;49.372;8.166;2023-03-31T11:02:57;17.90;56.60
14101;DHT22;7127;49.372;8.166;2023-03-31T11:05:31;18.00;56.40
14101;DHT22;7127;49.372;8.166;2023-03-31T11:08:20;18.20;56.20
14101;DHT22;7127;49.372;8.166;2023-03-31T11:11:00;18.20;55.90
14101;DHT22;7127;49.372;8.166;2023-03-31T11:13:34;18.40;55.50
14101;DHT22;7127;49.372;8.166;2023-03-31T11:16:08;18.40;55.20
14101;DHT22;7127;49.372;8.166;2023-03-31T11:18:58;18.50;55.70
14101;DHT22;7127;49.372;8.166;2023-03-31T11:21:33;18.40;55.50
14101;DHT22;7127;49.372;8.166;2023-03-31T11:24:08;18.60;55.40
14101;DHT22;7127;49.372;8.166;2023-03-31T11:26:46;18.70;55.20
14101;DHT22;7127;49.372;8.166;2023-03-31T11:29:24;18.80;54.60
14101;DHT22;7127;49.372;8.166;2023-03-31T11:32:01;18.80;54.60
14101;DHT22;7127;49.372;8.166;2023-03-31T11:34:53;19.00;54.60
14101;DHT22;7127;49.372;8.166;2023-03-31T11:37:52;19.00;54.20
14101;DHT22;7127;49.372;8.166;2023-03-31T11:40:33;19.00;54.40
14101;DHT22;7127;49.372;8.166;2023-03-31T11:43:05;19.10;54.20
14101;DHT22;7127;49.372;8.166;2023-03-31T11:45:38;19.10;53.90
14101;DHT22;7127;49.372;8.166;2023-03-31T11:48:13;19.10;53.50
14101;DHT22;7127;49.372;8.166;2023-03-31T11:50:44;19.00;53.20
14101;DHT22;7127;49.372;8.166;2023-03-31T11:53:15;18.90;53.00
14101;DHT22;7127;49.372;8.166;2023-03-31T11:55:47;18.90;52.80
14101;DHT22;7127;49.372;8.166;2023-03-31T11:58:15;18.70;52.50
14101;DHT22;7127;49.372;8.166;2023-03-31T12:00:47;18.70;52.70
14101;DHT22;7127;49.372;8.166;2023-03-31T12:03:20;18.60;52.80
14101;DHT22;7127;49.372;8.166;2023-03-31T12:05:50;18.60;52.90
14101;DHT22;7127;49.372;8.166;2023-03-31T12:08:25;18.50;52.60
14101;DHT22;7127;49.372;8.166;2023-03-31T12:11:00;18.40;52.60
14101;DHT22;7127;49.372;8.166;2023-03-31T12:13:35;18.30;52.40
14101;DHT22;7127;49.372;8.166;2023-03-31T12:16:10;18.20;52.40
14101;DHT22;7127;49.372;8.166;2023-03-31T12:18:40;18.10;52.50
14101;DHT22;7127;49.372;8.166;2023-03-31T12:21:09;18.00;52.50
14101;DHT22;7127;49.372;8.166;2023-03-31T12:23:40;17.90;52.30
14101;DHT22;7127;49.372;8.166;2023-03-31T12:26:17;17.90;52.30
14101;DHT22;7127;49.372;8.166;2023-03-31T12:28:53;17.80;52.30
14101;DHT22;7127;49.372;8.166;2023-03-31T12:31:23;17.80;52.40
14101;DHT22;7127;49.372;8.166;2023-03-31T12:33:54;17.80;52.40
14101;DHT22;7127;49.372;8.166;2023-03-31T12:36:32;17.70;52.70
14101;DHT22;7127;49.372;8.166;2023-03-31T12:39:19;17.80;53.00
14101;DHT22;7127;49.372;8.166;2023-03-31T12:42:01;17.70;53.00
14101;DHT22;7127;49.372;8.166;2023-03-31T12:44:37;17.80;53.20
14101;DHT22;7127;49.372;8.166;2023-03-31T12:47:27;17.90;53.30
14101;DHT22;7127;49.372;8.166;2023-03-31T12:53:03;18.00;52.70
14101;DHT22;7127;49.372;8.166;2023-03-31T12:55:35;18.00;52.90
14101;DHT22;7127;49.372;8.166;2023-03-31T12:58:39;18.10;53.10
14101;DHT22;7127;49.372;8.166;2023-03-31T13:01:08;18.20;53.00
14101;DHT22;7127;49.372;8.166;2023-03-31T13:03:53;18.20;53.00
14101;DHT22;7127;49.372;8.166;2023-03-31T13:06:47;18.30;52.60
14101;DHT22;7127;49.372;8.166;2023-03-31T13:09:38;18.40;53.00
14101;DHT22;7127;49.372;8.166;2023-03-31T13:12:06;18.40;53.10
14101;DHT22;7127;49.372;8.166;2023-03-31T13:14:37;18.50;53.30
14101;DHT22;7127;49.372;8.166;2023-03-31T13:17:22;18.60;53.30
14101;DHT22;7127;49.372;8.166;2023-03-31T13:19:50;18.70;52.90
14101;DHT22;7127;49.372;8.166;2023-03-31T13:22:29;18.80;52.80
14101;DHT22;7127;49.372;8.166;2023-03-31T13:28:25;19.00;52.70
14101;DHT22;7127;49.372;8.166;2023-03-31T13:30:56;19.20;52.80
14101;DHT22;7127;49.372;8.166;2023-03-31T13:33:29;19.30;52.60
14101;DHT22;7127;49.372;8.166;2023-03-31T13:36:19;19.20;52.40
14101;DHT22;7127;49.372;8.166;2023-03-31T13:39:02;19.30;52.10
14101;DHT22;7127;49.372;8.166;2023-03-31T13:41:39;19.30;52.30
14101;DHT22;7127;49.372;8.166;2023-03-31T13:44:51;19.40;52.30
14101;DHT22;7127;49.372;8.166;2023-03-31T13:47:42;19.50;52.10
14101;DHT22;7127;49.372;8.166;2023-03-31T13:50:43;19.50;51.60
14101;DHT22;7127;49.372;8.166;2023-03-31T13:53:27;19.40;51.00
14101;DHT22;7127;49.372;8.166;2023-03-31T13:59:17;19.20;50.50
14101;DHT22;7127;49.372;8.166;2023-03-31T14:02:24;19.00;50.60
14101;DHT22;7127;49.372;8.166;2023-03-31T14:05:23;18.90;50.80
14101;DHT22;7127;49.372;8.166;2023-03-31T14:07:54;18.70;50.90
14101;DHT22;7127;49.372;8.166;2023-03-31T14:10:29;18.50;50.90
14101;DHT22;7127;49.372;8.166;2023-03-31T14:13:08;18.50;51.50
14101;DHT22;7127;49.372;8.166;2023-03-31T14:15:37;18.40;52.20
14101;DHT22;7127;49.372;8.166;2023-03-31T14:18:06;18.30;52.30
14101;DHT22;7127;49.372;8.166;2023-03-31T14:20:39;18.30;52.40
14101;DHT22;7127;49.372;8.166;2023-03-31T14:23:17;18.30;52.60
14101;DHT22;7127;49.372;8.166;2023-03-31T14:25:52;18.30;52.80
14101;DHT22;7127;49.372;8.166;2023-03-31T14:28:47;18.20;52.60
14101;DHT22;7127;49.372;8.166;2023-03-31T14:31:21;18.20;53.30
14101;DHT22;7127;49.372;8.166;2023-03-31T14:34:06;18.10;53.10
14101;DHT22;7127;49.372;8.166;2023-03-31T14:36:45;18.20;53.50
14101;DHT22;7127;49.372;8.166;2023-03-31T14:39:16;18.20;53.50
14101;DHT22;7127;49.372;8.166;2023-03-31T14:41:51;18.20;53.60
14101;DHT22;7127;49.372;8.166;2023-03-31T14:44:22;18.30;53.60
14101;DHT22;7127;49.372;8.166;2023-03-31T14:46:51;18.30;53.50
14101;DHT22;7127;49.372;8.166;2023-03-31T14:49:20;18.30;53.50
14101;DHT22;7127;49.372;8.166;2023-03-31T14:51:53;18.30;53.20
14101;DHT22;7127;49.372;8.166;2023-03-31T14:54:20;18.30;53.00
14101;DHT22;7127;49.372;8.166;2023-03-31T14:56:51;18.40;52.80
14101;DHT22;7127;49.372;8.166;2023-03-31T14:59:21;18.30;52.70
14101;DHT22;7127;49.372;8.166;2023-03-31T15:01:50;18.30;52.70
14101;DHT22;7127;49.372;8.166;2023-03-31T15:04:20;18.20;52.60
14101;DHT22;7127;49.372;8.166;2023-03-31T15:06:49;18.20;52.70
14101;DHT22;7127;49.372;8.166;2023-03-31T15:09:21;18.20;52.80
14101;DHT22;7127;49.372;8.166;2023-03-31T15:11:55;18.10;52.90
14101;DHT22;7127;49.372;8.166;2023-03-31T15:14:25;18.10;53.00
14101;DHT22;7127;49.372;8.166;2023-03-31T15:16:54;18.20;53.30
14101;DHT22;7127;49.372;8.166;2023-03-31T15:19:28;18.10;53.20
14101;DHT22;7127;49.372;8.166;2023-03-31T15:21:56;18.10;53.30
14101;DHT22;7127;49.372;8.166;2023-03-31T15:24:27;18.10;53.30
14101;DHT22;7127;49.372;8.166;2023-03-31T15:26:58;18.00;53.10
14101;DHT22;7127;49.372;8.166;2023-03-31T15:29:33;18.00;53.00
14101;DHT22;7127;49.372;8.166;2023-03-31T15:32:00;17.90;52.90
14101;DHT22;7127;49.372;8.166;2023-03-31T15:34:30;17.90;53.00
14101;DHT22;7127;49.372;8.166;2023-03-31T15:36:59;17.80;53.00
14101;DHT22;7127;49.372;8.166;2023-03-31T15:39:30;17.70;53.10
14101;DHT22;7127;49.372;8.166;2023-03-31T15:41:59;17.70;53.20
14101;DHT22;7127;49.372;8.166;2023-03-31T15:44:38;17.70;53.40
14101;DHT22;7127;49.372;8.166;2023-03-31T15:47:15;17.60;53.70
14101;DHT22;7127;49.372;8.166;2023-03-31T15:50:07;17.60;53.70
14101;DHT22;7127;49.372;8.166;2023-03-31T15:52:44;17.60;53.80
14101;DHT22;7127;49.372;8.166;2023-03-31T15:55:27;17.50;53.90
14101;DHT22;7127;49.372;8.166;2023-03-31T15:57:57;17.60;54.10
14101;DHT22;7127;49.372;8.166;2023-03-31T16:00:41;17.50;53.70
14101;DHT22;7127;49.372;8.166;2023-03-31T16:03:15;17.50;53.90
14101;DHT22;7127;49.372;8.166;2023-03-31T16:05:49;17.50;53.90
14101;DHT22;7127;49.372;8.166;2023-03-31T16:08:27;17.50;53.80
14101;DHT22;7127;49.372;8.166;2023-03-31T16:11:00;17.50;53.80
14101;DHT22;7127;49.372;8.166;2023-03-31T16:13:30;17.50;53.80
14101;DHT22;7127;49.372;8.166;2023-03-31T16:15:58;17.40;53.70
14101;DHT22;7127;49.372;8.166;2023-03-31T16:18:30;17.40;53.80
14101;DHT22;7127;49.372;8.166;2023-03-31T16:21:02;17.40;53.90
14101;DHT22;7127;49.372;8.166;2023-03-31T16:23:31;17.40;53.70
14101;DHT22;7127;49.372;8.166;2023-03-31T16:26:00;17.40;53.70
14101;DHT22;7127;49.372;8.166;2023-03-31T16:28:30;17.40;53.60
14101;DHT22;7127;49.372;8.166;2023-03-31T16:30:59;17.40;53.50